Terminal Aerodrome Forecast
Issued by NWS Wilmington, OH

Current Version | Previous Version | Graphics & Text | Print | Product List | Glossary On
Versions: 1 2 3 4 5 6 7 8 9 10 11 12 13 14 15
073
FTUS41 KILN 280537
TAFILN
TAF
KILN 280537Z 2806/0106 16006KT P6SM BKN150
     FM281300 16007KT P6SM VCSH BKN100
     FM281500 18011KT 5SM -SHRA OVC025
     FM281700 19014KT 6SM -SHRA VCTS SCT008 OVC012CB
     FM282300 20014G22KT P6SM OVC012
     FM010500 20016G25KT 5SM SHRA VCTS SCT008 OVC012CB=

USA.gov is the U.S. government's official web portal to all federal, state and local government web resources and services.